createdAt,value
2023-10-16T00:00:48.602Z,25.50
2023-10-16T00:03:16.561Z,25.30
2023-10-16T00:05:50.534Z,25.80
2023-10-16T00:08:18.415Z,26.70
2023-10-16T00:11:18.457Z,27.00
2023-10-16T00:13:49.294Z,27.20
2023-10-16T00:16:17.806Z,27.40
2023-10-16T00:18:49.848Z,28.40
2023-10-16T00:21:17.037Z,29.30
2023-10-16T00:23:44.240Z,28.00
2023-10-16T00:26:14.485Z,27.90
2023-10-16T00:28:46.119Z,27.80
2023-10-16T00:31:23.121Z,28.50
2023-10-16T00:33:52.311Z,28.40
2023-10-16T00:36:19.658Z,28.20
2023-10-16T00:38:53.048Z,28.50
2023-10-16T00:41:29.624Z,28.40
2023-10-16T00:44:00.751Z,28.00
2023-10-16T00:46:34.205Z,28.40
2023-10-16T00:49:01.965Z,28.20
2023-10-16T00:51:39.577Z,28.50
2023-10-16T00:54:18.197Z,28.40
2023-10-16T00:56:55.584Z,29.20
2023-10-16T00:59:24.739Z,30.00
2023-10-16T01:02:10.858Z,31.20
2023-10-16T01:04:38.901Z,32.20
2023-10-16T01:07:08.897Z,32.10
2023-10-16T01:09:37.446Z,30.90
2023-10-16T01:12:09.109Z,30.50
2023-10-16T01:14:37.310Z,29.30
2023-10-16T01:17:05.735Z,29.30
2023-10-16T01:19:32.857Z,29.60
2023-10-16T01:22:02.612Z,30.50
2023-10-16T01:24:31.065Z,30.40
2023-10-16T01:27:16.024Z,30.50
2023-10-16T01:29:43.374Z,30.30
2023-10-16T01:32:10.263Z,30.10
2023-10-16T01:34:43.255Z,29.90
2023-10-16T01:37:14.459Z,30.10
2023-10-16T01:39:56.200Z,30.40
2023-10-16T01:42:25.879Z,29.90
2023-10-16T01:44:54.629Z,29.30
2023-10-16T01:47:24.442Z,29.00
2023-10-16T01:49:52.865Z,28.80
2023-10-16T01:52:23.985Z,29.10
2023-10-16T01:54:54.227Z,29.40
2023-10-16T01:57:23.321Z,29.80
2023-10-16T01:59:53.750Z,29.60
2023-10-16T02:02:22.634Z,29.70
2023-10-16T02:04:51.698Z,28.30
2023-10-16T02:07:21.184Z,27.10
2023-10-16T02:09:49.866Z,27.30
2023-10-16T02:12:18.826Z,26.90
2023-10-16T02:14:47.657Z,27.30
2023-10-16T02:17:21.822Z,27.40
2023-10-16T02:19:52.543Z,27.10
2023-10-16T02:22:24.114Z,26.40
2023-10-16T02:24:53.336Z,26.50
2023-10-16T02:27:22.245Z,26.20
2023-10-16T02:29:57.439Z,26.20
2023-10-16T02:32:26.409Z,25.80
2023-10-16T02:34:53.415Z,25.70
2023-10-16T02:37:23.086Z,25.10
2023-10-16T02:39:53.009Z,25.50
2023-10-16T02:42:21.540Z,26.30
2023-10-16T02:44:51.380Z,25.50
2023-10-16T02:47:28.646Z,25.70
2023-10-16T02:49:59.528Z,25.60
2023-10-16T02:52:28.272Z,25.20
2023-10-16T02:54:59.364Z,25.50
2023-10-16T02:57:29.615Z,25.70
2023-10-16T02:59:58.957Z,26.10
2023-10-16T03:02:29.227Z,27.20
2023-10-16T03:05:12.670Z,27.20
2023-10-16T03:07:46.228Z,26.50
2023-10-16T03:10:16.802Z,26.40
2023-10-16T03:12:46.511Z,26.30
2023-10-16T03:15:33.648Z,26.30
2023-10-16T03:18:02.812Z,26.30
2023-10-16T03:20:40.631Z,25.50
2023-10-16T03:23:09.388Z,25.70
2023-10-16T03:25:46.009Z,26.30
2023-10-16T03:28:15.389Z,25.80
2023-10-16T03:30:44.303Z,25.10
2023-10-16T03:33:16.491Z,25.50
2023-10-16T03:35:51.262Z,26.20
2023-10-16T03:38:26.551Z,26.40
2023-10-16T03:40:58.196Z,25.80
2023-10-16T03:43:27.163Z,26.00
2023-10-16T03:45:54.648Z,26.00
2023-10-16T03:48:23.356Z,26.20
2023-10-16T03:50:57.925Z,27.40
2023-10-16T03:53:26.984Z,27.00
2023-10-16T03:55:55.521Z,27.00
2023-10-16T03:58:23.036Z,27.20
2023-10-16T04:01:09.867Z,27.60
2023-10-16T04:03:48.290Z,28.20
2023-10-16T04:06:21.958Z,28.30
2023-10-16T04:08:53.370Z,28.90
2023-10-16T04:11:27.394Z,30.00
2023-10-16T04:13:56.406Z,31.10
2023-10-16T04:16:44.588Z,32.20
2023-10-16T04:19:17.156Z,32.60
2023-10-16T04:22:07.267Z,33.30
2023-10-16T04:24:42.304Z,33.50
2023-10-16T04:27:10.885Z,33.60
2023-10-16T04:30:16.011Z,33.90
2023-10-16T04:33:01.500Z,34.10
2023-10-16T04:35:49.587Z,34.20
2023-10-16T04:38:33.043Z,34.10
2023-10-16T04:41:20.242Z,33.50
2023-10-16T04:44:07.550Z,32.00
2023-10-16T04:46:54.827Z,31.20
2023-10-16T04:49:29.525Z,30.80
2023-10-16T04:52:09.039Z,30.30
2023-10-16T04:54:55.763Z,30.50
2023-10-16T04:57:27.604Z,30.70
2023-10-16T05:00:14.139Z,30.10
2023-10-16T05:02:53.924Z,29.90
2023-10-16T05:05:39.846Z,29.00
2023-10-16T05:08:28.597Z,29.10
2023-10-16T05:11:14.452Z,28.80
2023-10-16T05:13:44.394Z,28.50
2023-10-16T05:16:32.755Z,27.50
2023-10-16T05:19:05.921Z,26.50
2023-10-16T05:21:53.052Z,26.40
2023-10-16T05:24:38.915Z,26.20
2023-10-16T05:27:25.316Z,26.70
2023-10-16T05:30:11.183Z,27.40
2023-10-16T05:32:56.837Z,27.80
2023-10-16T05:35:42.486Z,27.40
2023-10-16T05:38:28.956Z,28.30
2023-10-16T05:41:28.429Z,27.60
2023-10-16T05:44:14.663Z,27.00
2023-10-16T05:47:01.112Z,26.90
2023-10-16T05:49:47.351Z,26.70
2023-10-16T05:52:33.699Z,27.30
2023-10-16T05:55:19.339Z,27.90
2023-10-16T05:58:05.759Z,28.20
2023-10-16T06:00:52.250Z,27.70
2023-10-16T06:03:38.080Z,27.70
2023-10-16T06:06:24.108Z,28.00
2023-10-16T06:09:09.838Z,27.90
2023-10-16T06:11:55.488Z,27.90
2023-10-16T06:14:22.413Z,28.00
2023-10-16T06:16:54.831Z,28.30
2023-10-16T06:19:25.678Z,28.40
2023-10-16T06:21:53.876Z,28.90
2023-10-16T06:24:29.113Z,28.90
2023-10-16T06:27:02.864Z,28.80
2023-10-16T06:29:36.704Z,29.00
2023-10-16T06:32:09.586Z,29.60
2023-10-16T06:34:36.769Z,29.90
2023-10-16T06:37:10.959Z,29.80
2023-10-16T06:39:38.374Z,29.60
2023-10-16T06:42:06.264Z,29.50
2023-10-16T06:44:35.709Z,29.10
2023-10-16T06:47:03.051Z,29.40
2023-10-16T06:49:37.899Z,29.30
2023-10-16T06:52:05.999Z,29.60
2023-10-16T06:54:33.752Z,29.60
2023-10-16T06:57:12.385Z,29.00
2023-10-16T06:59:41.519Z,29.30
2023-10-16T07:02:30.951Z,29.60
2023-10-16T07:04:58.006Z,29.80
2023-10-16T07:07:24.987Z,30.50
2023-10-16T07:09:53.006Z,30.10
2023-10-16T07:12:20.780Z,30.40
2023-10-16T07:15:02.549Z,30.20
2023-10-16T07:17:29.636Z,30.20
2023-10-16T07:20:00.744Z,31.10
2023-10-16T07:22:33.254Z,30.70
2023-10-16T07:25:27.109Z,31.30
2023-10-16T07:27:59.833Z,31.40
2023-10-16T07:30:28.829Z,32.50
2023-10-16T07:32:56.647Z,32.20
2023-10-16T07:35:23.966Z,32.50
2023-10-16T07:37:54.682Z,32.00
2023-10-16T07:40:22.990Z,31.10
2023-10-16T07:42:50.324Z,31.30
2023-10-16T07:45:17.542Z,31.30
2023-10-16T07:47:50.029Z,31.70
2023-10-16T07:50:17.567Z,32.50
2023-10-16T07:52:44.800Z,32.50
2023-10-16T07:55:20.861Z,32.60
2023-10-16T07:57:52.645Z,32.00
2023-10-16T08:00:27.068Z,31.60
2023-10-16T08:03:06.392Z,30.70
2023-10-16T08:05:33.987Z,30.00
2023-10-16T08:08:01.770Z,30.10
2023-10-16T08:10:45.744Z,30.30
2023-10-16T08:13:12.856Z,29.70
2023-10-16T08:15:50.611Z,29.10
2023-10-16T08:18:19.775Z,28.90
2023-10-16T08:20:50.722Z,29.10
2023-10-16T08:23:18.341Z,29.20
2023-10-16T08:25:49.077Z,29.10
2023-10-16T08:28:22.967Z,29.60
2023-10-16T08:30:50.447Z,29.90
2023-10-16T08:33:17.910Z,30.10
2023-10-16T08:35:46.584Z,30.00
2023-10-16T08:38:27.373Z,31.00
2023-10-16T08:40:59.045Z,31.50
2023-10-16T08:43:54.333Z,32.90
2023-10-16T08:46:36.298Z,33.60
2023-10-16T08:49:04.580Z,33.10
2023-10-16T08:51:32.516Z,32.50
2023-10-16T08:54:06.870Z,32.50
2023-10-16T08:56:33.886Z,32.70
2023-10-16T08:59:02.904Z,32.70
2023-10-16T09:01:33.687Z,32.20
2023-10-16T09:04:10.156Z,32.60
2023-10-16T09:06:41.260Z,32.20
2023-10-16T09:09:17.927Z,32.30
2023-10-16T09:11:46.722Z,32.80
2023-10-16T09:14:22.459Z,32.40
2023-10-16T09:16:53.645Z,32.60
2023-10-16T09:19:21.505Z,33.80
2023-10-16T09:21:54.701Z,33.30
2023-10-16T09:24:21.989Z,33.70
2023-10-16T09:26:57.114Z,33.40
2023-10-16T09:29:28.799Z,33.10
2023-10-16T09:31:56.175Z,33.30
2023-10-16T09:34:27.536Z,34.10
2023-10-16T09:37:13.910Z,34.50
2023-10-16T09:39:50.844Z,35.20
2023-10-16T09:42:25.902Z,35.00
2023-10-16T09:45:09.981Z,35.50
2023-10-16T09:47:49.980Z,35.30
2023-10-16T09:50:18.533Z,36.10
2023-10-16T09:52:50.006Z,36.50
2023-10-16T09:55:20.543Z,36.80
2023-10-16T09:57:55.908Z,36.80
2023-10-16T10:00:29.964Z,36.40
2023-10-16T10:02:59.996Z,35.40
2023-10-16T10:05:42.419Z,34.90
2023-10-16T10:08:17.514Z,34.40
2023-10-16T10:11:22.164Z,34.20
2023-10-16T10:14:17.014Z,33.30
2023-10-16T10:16:49.161Z,32.80
2023-10-16T10:19:37.184Z,32.70
2023-10-16T10:22:12.740Z,31.90
2023-10-16T10:24:47.387Z,32.30
2023-10-16T10:27:18.017Z,32.60
2023-10-16T10:29:51.526Z,32.90
2023-10-16T10:32:18.548Z,33.30
2023-10-16T10:34:46.420Z,33.80
2023-10-16T10:37:48.349Z,34.20
2023-10-16T10:40:25.601Z,33.20
2023-10-16T10:42:58.331Z,32.20
2023-10-16T10:45:35.902Z,32.60
2023-10-16T10:48:08.226Z,32.10
2023-10-16T10:50:36.226Z,33.10
2023-10-16T10:53:14.729Z,34.10
2023-10-16T10:55:57.780Z,34.80
2023-10-16T10:58:34.370Z,35.00
2023-10-16T11:01:22.341Z,34.90
2023-10-16T11:03:55.249Z,35.00
2023-10-16T11:06:47.367Z,34.10
2023-10-16T11:09:19.607Z,33.60
2023-10-16T11:11:49.103Z,33.90
2023-10-16T11:14:17.135Z,33.60
2023-10-16T11:16:46.604Z,33.90
2023-10-16T11:19:20.238Z,34.70
2023-10-16T11:21:48.821Z,35.00
2023-10-16T11:24:16.154Z,35.50
2023-10-16T11:26:43.933Z,36.00
2023-10-16T11:29:13.731Z,36.30
2023-10-16T11:31:45.915Z,36.70
2023-10-16T11:34:15.952Z,37.00
2023-10-16T11:36:47.766Z,37.00
2023-10-16T11:39:21.704Z,37.60
2023-10-16T11:41:50.504Z,38.10
2023-10-16T11:44:18.183Z,38.00
2023-10-16T11:46:53.670Z,36.60
2023-10-16T11:49:24.537Z,37.10
2023-10-16T11:52:21.491Z,38.10
2023-10-16T11:57:44.682Z,38.60
2023-10-16T12:00:17.557Z,38.30
2023-10-16T12:02:48.137Z,38.80
2023-10-16T12:05:15.921Z,39.20
2023-10-16T12:07:45.157Z,38.00
2023-10-16T12:10:16.813Z,38.30
2023-10-16T12:12:45.962Z,38.10
2023-10-16T12:15:14.149Z,38.20
2023-10-16T12:17:41.898Z,38.40
2023-10-16T12:20:11.963Z,38.20
2023-10-16T12:22:40.613Z,38.20
2023-10-16T12:25:11.205Z,38.70
2023-10-16T12:27:38.701Z,40.00
2023-10-16T12:30:15.448Z,40.70
2023-10-16T12:32:42.920Z,40.60
2023-10-16T12:35:13.230Z,40.70
2023-10-16T12:37:41.180Z,40.10
2023-10-16T12:40:27.409Z,40.10
2023-10-16T12:43:00.035Z,38.90
2023-10-16T12:45:28.815Z,37.80
2023-10-16T12:47:58.821Z,37.70
2023-10-16T12:50:28.486Z,36.90
2023-10-16T12:53:00.452Z,36.30
2023-10-16T12:55:27.823Z,36.10
2023-10-16T12:57:55.115Z,36.20
2023-10-16T13:00:23.651Z,36.10
2023-10-16T13:02:52.770Z,36.20
2023-10-16T13:05:21.154Z,37.00
2023-10-16T13:07:53.367Z,37.00
2023-10-16T13:10:28.064Z,36.80
2023-10-16T13:12:56.189Z,37.10
2023-10-16T13:15:26.588Z,36.20
2023-10-16T13:17:54.742Z,35.70
2023-10-16T13:20:22.398Z,35.60
2023-10-16T13:22:51.174Z,35.50
2023-10-16T13:25:18.817Z,34.80
2023-10-16T13:27:46.473Z,35.20
2023-10-16T13:30:13.920Z,34.60
2023-10-16T13:32:42.783Z,34.90
2023-10-16T13:35:18.308Z,34.10
2023-10-16T13:37:54.304Z,34.90
2023-10-16T13:40:31.194Z,36.10
2023-10-16T13:43:01.821Z,36.90
2023-10-16T13:45:29.275Z,37.20
2023-10-16T13:47:57.017Z,36.80
2023-10-16T13:50:27.035Z,36.40
2023-10-16T13:52:54.873Z,36.20
2023-10-16T13:55:25.840Z,36.10
2023-10-16T13:57:55.981Z,35.60
2023-10-16T14:00:38.979Z,35.80
2023-10-16T14:03:11.517Z,36.40
2023-10-16T14:05:46.025Z,37.40
2023-10-16T14:08:16.533Z,38.10
2023-10-16T14:10:48.561Z,38.80
2023-10-16T14:13:22.399Z,38.40
2023-10-16T14:15:52.723Z,39.00
2023-10-16T14:18:26.531Z,39.10
2023-10-16T14:20:55.020Z,38.10
2023-10-16T14:23:32.514Z,37.70
2023-10-16T14:26:00.806Z,37.90
2023-10-16T14:28:35.497Z,37.70
2023-10-16T14:31:12.961Z,37.60
2023-10-16T14:33:40.880Z,37.90
2023-10-16T14:36:10.919Z,36.90
2023-10-16T14:38:42.589Z,36.50
2023-10-16T14:41:18.792Z,37.20
2023-10-16T14:43:49.800Z,38.10
2023-10-16T14:46:17.727Z,37.20
2023-10-16T14:48:45.439Z,36.80
2023-10-16T14:51:17.100Z,35.90
2023-10-16T14:53:46.553Z,35.90
2023-10-16T14:56:20.136Z,36.30
2023-10-16T15:01:21.108Z,36.00
2023-10-16T15:03:52.992Z,35.10
2023-10-16T15:06:20.427Z,35.20
2023-10-16T15:08:49.667Z,35.20
2023-10-16T15:11:17.444Z,35.50
2023-10-16T15:13:44.504Z,35.80
2023-10-16T15:16:11.941Z,36.10
2023-10-16T15:18:42.752Z,35.60
2023-10-16T15:21:10.337Z,35.00
2023-10-16T15:23:38.635Z,34.10
2023-10-16T15:26:06.619Z,33.70
2023-10-16T15:28:45.304Z,33.70
2023-10-16T15:31:15.365Z,33.20
2023-10-16T15:33:42.929Z,32.70
2023-10-16T15:36:10.052Z,32.50
2023-10-16T15:38:39.053Z,32.60
2023-10-16T15:41:09.665Z,33.40
2023-10-16T15:43:37.195Z,33.10
2023-10-16T15:46:04.911Z,32.70
2023-10-16T15:48:34.726Z,32.90
2023-10-16T15:51:02.484Z,33.10
2023-10-16T15:53:29.954Z,32.90
2023-10-16T15:55:57.085Z,33.10
2023-10-16T15:58:24.100Z,32.60
2023-10-16T16:00:53.675Z,32.70
2023-10-16T16:03:24.060Z,32.60
2023-10-16T16:05:51.973Z,32.10
2023-10-16T16:08:28.515Z,32.00
2023-10-16T16:10:56.394Z,31.50
2023-10-16T16:13:23.727Z,31.60
2023-10-16T16:15:51.013Z,31.50
2023-10-16T16:18:19.110Z,31.60
2023-10-16T16:20:48.700Z,31.50
2023-10-16T16:23:17.739Z,31.20
2023-10-16T16:25:46.384Z,31.30
2023-10-16T16:28:14.022Z,31.30
2023-10-16T16:28:22.242Z,38.20
2023-10-16T16:30:41.530Z,31.00
2023-10-16T16:33:09.097Z,31.80
2023-10-16T16:35:36.504Z,31.70
2023-10-16T16:38:09.576Z,31.80
2023-10-16T16:40:37.008Z,31.10
2023-10-16T16:43:04.964Z,31.70
2023-10-16T16:45:34.487Z,31.90
2023-10-16T16:48:03.610Z,31.80
2023-10-16T16:50:31.842Z,31.90
2023-10-16T16:52:59.172Z,32.30
2023-10-16T16:55:28.169Z,32.00
2023-10-16T16:57:57.060Z,31.70
2023-10-16T17:00:30.276Z,31.90
2023-10-16T17:02:58.357Z,31.80
2023-10-16T17:05:25.944Z,32.00
2023-10-16T17:07:53.176Z,31.80
2023-10-16T17:10:20.556Z,32.00
2023-10-16T17:12:48.179Z,31.70
2023-10-16T17:15:17.859Z,30.90
2023-10-16T17:17:45.343Z,30.50
2023-10-16T17:20:13.659Z,30.40
2023-10-16T17:25:23.541Z,30.50
2023-10-16T17:27:52.389Z,29.80
2023-10-16T17:30:21.471Z,29.40
2023-10-16T17:32:53.419Z,29.30
2023-10-16T17:35:28.761Z,29.90
2023-10-16T17:37:56.325Z,30.30
2023-10-16T17:40:23.361Z,30.10
2023-10-16T17:42:50.478Z,29.80
2023-10-16T17:45:19.837Z,30.00
2023-10-16T17:47:47.379Z,30.50
2023-10-16T17:50:14.413Z,30.30
2023-10-16T17:52:41.674Z,30.30
2023-10-16T17:55:08.912Z,30.40
2023-10-16T17:57:36.185Z,30.40
2023-10-16T18:00:09.345Z,30.50
2023-10-16T18:02:43.008Z,30.70
2023-10-16T18:05:12.078Z,30.50
2023-10-16T18:07:42.533Z,30.50
2023-10-16T18:10:11.246Z,30.00
2023-10-16T18:12:38.858Z,29.40
2023-10-16T18:15:10.089Z,29.00
2023-10-16T18:17:42.193Z,28.90
2023-10-16T18:20:10.351Z,29.20
2023-10-16T18:22:38.150Z,29.20
2023-10-16T18:25:05.789Z,29.70
2023-10-16T18:27:33.190Z,29.90
2023-10-16T18:30:00.843Z,29.60
2023-10-16T18:32:28.176Z,29.80
2023-10-16T18:34:55.427Z,29.80
2023-10-16T18:37:22.402Z,30.00
2023-10-16T18:39:52.651Z,30.40
2023-10-16T18:42:22.578Z,30.30
2023-10-16T18:44:51.264Z,30.20
2023-10-16T18:47:19.089Z,29.50
2023-10-16T18:49:46.412Z,29.60
2023-10-16T18:52:13.586Z,30.00
2023-10-16T18:54:40.552Z,30.10
2023-10-16T18:57:11.263Z,29.90
2023-10-16T18:59:39.556Z,29.70
2023-10-16T19:02:07.021Z,29.60
2023-10-16T19:04:34.239Z,29.30
2023-10-16T19:07:01.475Z,29.60
2023-10-16T19:09:28.796Z,29.70
2023-10-16T19:11:56.607Z,29.70
2023-10-16T19:14:25.322Z,29.80
2023-10-16T19:16:54.720Z,29.90
2023-10-16T19:19:26.441Z,29.90
2023-10-16T19:21:53.413Z,30.20
2023-10-16T19:24:21.529Z,30.40
2023-10-16T19:26:48.801Z,30.40
2023-10-16T19:29:15.923Z,29.30
2023-10-16T19:31:43.840Z,29.10
2023-10-16T19:34:12.131Z,29.60
2023-10-16T19:36:42.008Z,29.40
2023-10-16T19:39:12.086Z,29.50
2023-10-16T19:41:39.563Z,29.60
2023-10-16T19:44:08.908Z,29.50
2023-10-16T19:46:40.752Z,29.90
2023-10-16T19:49:07.972Z,29.90
2023-10-16T19:51:35.914Z,29.70
2023-10-16T19:54:03.189Z,29.60
2023-10-16T19:56:31.243Z,29.60
2023-10-16T19:59:00.008Z,29.40
2023-10-16T20:01:27.826Z,29.40
2023-10-16T20:03:55.900Z,29.70
2023-10-16T20:06:26.600Z,29.50
2023-10-16T20:08:53.739Z,29.70
2023-10-16T20:11:21.006Z,28.90
2023-10-16T20:13:48.870Z,29.00
2023-10-16T20:16:16.894Z,29.20
2023-10-16T20:18:45.680Z,29.10
2023-10-16T20:21:19.616Z,29.60
2023-10-16T20:23:48.884Z,30.10
2023-10-16T20:26:18.017Z,30.20
2023-10-16T20:28:45.996Z,30.30
2023-10-16T20:31:13.282Z,29.60
2023-10-16T20:33:44.017Z,29.50
2023-10-16T20:36:11.399Z,29.80
2023-10-16T20:38:39.019Z,29.80
2023-10-16T20:41:06.792Z,29.90
2023-10-16T20:43:34.594Z,29.20
2023-10-16T20:46:05.531Z,29.60
2023-10-16T20:48:33.190Z,29.20
2023-10-16T20:51:00.692Z,29.00
2023-10-16T20:53:28.711Z,29.50
2023-10-16T20:55:56.001Z,29.50
2023-10-16T20:58:23.681Z,29.60
2023-10-16T21:00:50.850Z,29.70
2023-10-16T21:03:19.842Z,29.80
2023-10-16T21:05:47.387Z,29.50
2023-10-16T21:08:14.438Z,29.70
2023-10-16T21:10:42.211Z,30.20
2023-10-16T21:13:09.539Z,30.20
2023-10-16T21:15:36.538Z,30.30
2023-10-16T21:18:03.946Z,30.30
2023-10-16T21:20:31.203Z,30.60
2023-10-16T21:22:58.248Z,30.10
2023-10-16T21:25:28.277Z,29.10
2023-10-16T21:27:55.390Z,28.40
2023-10-16T21:30:23.426Z,28.70
2023-10-16T21:32:55.462Z,28.90
2023-10-16T21:35:28.409Z,29.20
2023-10-16T21:37:55.512Z,29.50
2023-10-16T21:40:23.363Z,29.30
2023-10-16T21:42:52.316Z,29.40
2023-10-16T21:45:20.048Z,29.60
2023-10-16T21:47:47.684Z,29.70
2023-10-16T21:50:15.270Z,29.80
2023-10-16T21:52:42.395Z,29.40
2023-10-16T21:55:10.167Z,29.60
2023-10-16T21:57:37.303Z,30.10
2023-10-16T22:00:29.443Z,30.20
2023-10-16T22:02:56.778Z,30.10
2023-10-16T22:05:25.011Z,29.60
2023-10-16T22:07:52.274Z,29.00
2023-10-16T22:10:21.056Z,28.50
2023-10-16T22:12:52.830Z,28.80
2023-10-16T22:15:20.892Z,28.70
2023-10-16T22:17:49.066Z,28.30
2023-10-16T22:20:18.121Z,28.60
2023-10-16T22:22:47.019Z,29.20
2023-10-16T22:25:15.426Z,29.20
2023-10-16T22:27:42.402Z,29.00
2023-10-16T22:30:11.817Z,28.90
2023-10-16T22:32:39.426Z,28.90
2023-10-16T22:35:06.671Z,28.90
2023-10-16T22:37:34.996Z,28.60
2023-10-16T22:40:09.380Z,28.40
2023-10-16T22:42:36.504Z,28.20
2023-10-16T22:45:04.716Z,28.30
2023-10-16T22:47:31.683Z,28.20
2023-10-16T22:49:59.171Z,28.40
2023-10-16T22:52:27.813Z,28.00
2023-10-16T22:54:54.750Z,28.10
2023-10-16T22:57:21.862Z,28.10
2023-10-16T22:59:52.311Z,28.00
2023-10-16T23:02:19.485Z,28.20
2023-10-16T23:04:47.090Z,28.10
2023-10-16T23:07:14.214Z,28.40
2023-10-16T23:09:47.825Z,28.40
2023-10-16T23:12:15.367Z,28.30
2023-10-16T23:14:43.010Z,28.50
2023-10-16T23:17:19.570Z,28.50
2023-10-16T23:19:48.999Z,29.20
2023-10-16T23:22:16.128Z,29.30
2023-10-16T23:24:43.783Z,29.00
2023-10-16T23:27:11.091Z,28.70
2023-10-16T23:29:38.230Z,28.90
2023-10-16T23:32:05.996Z,28.50
2023-10-16T23:34:33.221Z,28.30
2023-10-16T23:37:13.892Z,27.90
2023-10-16T23:39:47.901Z,27.70
2023-10-16T23:42:18.708Z,27.80
2023-10-16T23:44:47.586Z,27.80
2023-10-16T23:47:18.351Z,27.50
2023-10-16T23:49:49.876Z,27.50
2023-10-16T23:52:24.104Z,28.30
2023-10-16T23:55:08.238Z,28.40
2023-10-16T23:57:50.133Z,28.90
